sensor_id;sensor_type;location;lat;lon;timestamp;pressure;altitude;pressure_sealevel;temperature;humidity
34243;BME280;20504;43.214;27.920;2023-01-16T00:00:50;96079.41;;;11.63;100.00
34243;BME280;20504;43.214;27.920;2023-01-16T00:03:15;96054.56;;;11.58;100.00
34243;BME280;20504;43.214;27.920;2023-01-16T00:05:42;96067.44;;;11.54;100.00
34243;BME280;20504;43.214;27.920;2023-01-16T00:08:07;96082.94;;;11.50;100.00
34243;BME280;20504;43.214;27.920;2023-01-16T00:10:33;96062.72;;;11.56;100.00
34243;BME280;20504;43.214;27.920;2023-01-16T00:12:58;96028.63;;;11.60;100.00
34243;BME280;20504;43.214;27.920;2023-01-16T00:15:24;95980.34;;;11.76;100.00
34243;BME280;20504;43.214;27.920;2023-01-16T00:17:49;96004.09;;;11.64;100.00
34243;BME280;20504;43.214;27.920;2023-01-16T00:20:16;95981.81;;;11.72;100.00
34243;BME280;20504;43.214;27.920;2023-01-16T00:22:41;95964.66;;;11.74;100.00
34243;BME280;20504;43.214;27.920;2023-01-16T00:25:07;95981.47;;;11.62;100.00
34243;BME280;20504;43.214;27.920;2023-01-16T00:27:33;95930.59;;;11.71;100.00
34243;BME280;20504;43.214;27.920;2023-01-16T00:29:58;95921.94;;;11.82;100.00
34243;BME280;20504;43.214;27.920;2023-01-16T00:32:24;95933.63;;;11.75;100.00
34243;BME280;20504;43.214;27.920;2023-01-16T00:34:49;95923.19;;;11.80;100.00
34243;BME280;20504;43.214;27.920;2023-01-16T00:37:15;95903.34;;;11.82;100.00
34243;BME280;20504;43.214;27.920;2023-01-16T00:39:40;95885.63;;;11.76;100.00
34243;BME280;20504;43.214;27.920;2023-01-16T00:42:06;95899.06;;;11.81;100.00
34243;BME280;20504;43.214;27.920;2023-01-16T00:44:32;95907.09;;;11.75;100.00
34243;BME280;20504;43.214;27.920;2023-01-16T00:46:57;95932.91;;;11.61;100.00
34243;BME280;20504;43.214;27.920;2023-01-16T00:49:23;95866.84;;;11.78;100.00
34243;BME280;20504;43.214;27.920;2023-01-16T00:51:48;95847.25;;;11.79;100.00
34243;BME280;20504;43.214;27.920;2023-01-16T00:54:14;95822.22;;;11.68;100.00
34243;BME280;20504;43.214;27.920;2023-01-16T00:56:39;95859.41;;;11.87;100.00
34243;BME280;20504;43.214;27.920;2023-01-16T00:59:04;95860.66;;;11.84;100.00
34243;BME280;20504;43.214;27.920;2023-01-16T01:01:30;95866.47;;;11.74;100.00
34243;BME280;20504;43.214;27.920;2023-01-16T01:03:58;95843.34;;;11.81;100.00
34243;BME280;20504;43.214;27.920;2023-01-16T01:06:24;95843.19;;;11.76;100.00
34243;BME280;20504;43.214;27.920;2023-01-16T01:08:50;95830.34;;;11.73;100.00
34243;BME280;20504;43.214;27.920;2023-01-16T01:11:15;95831.00;;;11.69;100.00
34243;BME280;20504;43.214;27.920;2023-01-16T01:13:41;95796.22;;;11.77;100.00
34243;BME280;20504;43.214;27.920;2023-01-16T01:16:08;95768.66;;;11.78;100.00
34243;BME280;20504;43.214;27.920;2023-01-16T01:18:33;95738.66;;;11.77;100.00
34243;BME280;20504;43.214;27.920;2023-01-16T01:20:59;95720.97;;;11.90;100.00
34243;BME280;20504;43.214;27.920;2023-01-16T01:23:25;95712.88;;;11.85;100.00
34243;BME280;20504;43.214;27.920;2023-01-16T01:25:50;95692.00;;;11.88;100.00
34243;BME280;20504;43.214;27.920;2023-01-16T01:28:17;95680.56;;;11.88;100.00
34243;BME280;20504;43.214;27.920;2023-01-16T01:30:43;95629.50;;;11.92;100.00
34243;BME280;20504;43.214;27.920;2023-01-16T01:33:09;95629.63;;;11.97;100.00
34243;BME280;20504;43.214;27.920;2023-01-16T01:35:35;95663.13;;;11.80;100.00
34243;BME280;20504;43.214;27.920;2023-01-16T01:38:01;95614.69;;;11.85;100.00
34243;BME280;20504;43.214;27.920;2023-01-16T01:40:26;95625.97;;;11.80;100.00
34243;BME280;20504;43.214;27.920;2023-01-16T01:42:52;95593.00;;;11.88;100.00
34243;BME280;20504;43.214;27.920;2023-01-16T01:45:27;95577.22;;;11.93;100.00
34243;BME280;20504;43.214;27.920;2023-01-16T01:53:33;95490.09;;;11.90;100.00
34243;BME280;20504;43.214;27.920;2023-01-16T01:56:07;95466.34;;;11.95;100.00
34243;BME280;20504;43.214;27.920;2023-01-16T01:58:34;95467.03;;;11.90;100.00
34243;BME280;20504;43.214;27.920;2023-01-16T02:01:00;95469.81;;;11.95;100.00
34243;BME280;20504;43.214;27.920;2023-01-16T02:05:57;95458.38;;;11.95;100.00
34243;BME280;20504;43.214;27.920;2023-01-16T02:08:30;95463.56;;;11.90;100.00
34243;BME280;20504;43.214;27.920;2023-01-16T02:11:02;95431.63;;;11.96;100.00
34243;BME280;20504;43.214;27.920;2023-01-16T02:13:28;95359.09;;;12.19;100.00
34243;BME280;20504;43.214;27.920;2023-01-16T02:15:55;95356.47;;;12.19;100.00
34243;BME280;20504;43.214;27.920;2023-01-16T02:18:40;95344.56;;;12.22;100.00
34243;BME280;20504;43.214;27.920;2023-01-16T02:32:13;95368.50;;;12.10;100.00
34243;BME280;20504;43.214;27.920;2023-01-16T02:40:13;95361.19;;;12.05;100.00
34243;BME280;20504;43.214;27.920;2023-01-16T02:43:08;95341.00;;;12.04;100.00
34243;BME280;20504;43.214;27.920;2023-01-16T02:45:42;95340.53;;;12.07;100.00
34243;BME280;20504;43.214;27.920;2023-01-16T02:51:05;95343.44;;;12.06;100.00
34243;BME280;20504;43.214;27.920;2023-01-16T02:53:43;95369.16;;;12.05;100.00
34243;BME280;20504;43.214;27.920;2023-01-16T02:56:11;95378.41;;;12.03;100.00
34243;BME280;20504;43.214;27.920;2023-01-16T02:58:45;95398.50;;;11.99;100.00
34243;BME280;20504;43.214;27.920;2023-01-16T03:01:11;95413.50;;;11.81;100.00
34243;BME280;20504;43.214;27.920;2023-01-16T03:04:01;95422.59;;;11.97;100.00
34243;BME280;20504;43.214;27.920;2023-01-16T03:15:24;95363.88;;;11.94;100.00
34243;BME280;20504;43.214;27.920;2023-01-16T03:18:23;95359.25;;;11.77;100.00
34243;BME280;20504;43.214;27.920;2023-01-16T03:26:03;95441.16;;;11.86;100.00
34243;BME280;20504;43.214;27.920;2023-01-16T03:28:38;95439.31;;;11.86;100.00
34243;BME280;20504;43.214;27.920;2023-01-16T03:31:13;95451.78;;;11.86;100.00
34243;BME280;20504;43.214;27.920;2023-01-16T03:36:30;95455.00;;;11.88;100.00
34243;BME280;20504;43.214;27.920;2023-01-16T03:38:59;95478.72;;;11.71;100.00
34243;BME280;20504;43.214;27.920;2023-01-16T03:41:27;95492.63;;;11.85;100.00
34243;BME280;20504;43.214;27.920;2023-01-16T03:43:59;95547.50;;;11.72;100.00
34243;BME280;20504;43.214;27.920;2023-01-16T03:46:34;95527.59;;;11.81;100.00
34243;BME280;20504;43.214;27.920;2023-01-16T03:49:08;95523.75;;;11.77;100.00
34243;BME280;20504;43.214;27.920;2023-01-16T03:51:43;95509.13;;;11.87;100.00
34243;BME280;20504;43.214;27.920;2023-01-16T03:59:35;95522.63;;;11.85;100.00
34243;BME280;20504;43.214;27.920;2023-01-16T04:02:24;95527.81;;;11.80;100.00
34243;BME280;20504;43.214;27.920;2023-01-16T04:07:37;95539.53;;;11.72;100.00
34243;BME280;20504;43.214;27.920;2023-01-16T04:10:27;95574.59;;;11.74;100.00
34243;BME280;20504;43.214;27.920;2023-01-16T04:13:01;95598.78;;;11.66;100.00
34243;BME280;20504;43.214;27.920;2023-01-16T04:15:31;95605.88;;;11.72;100.00
34243;BME280;20504;43.214;27.920;2023-01-16T04:17:57;95603.13;;;11.79;100.00
34243;BME280;20504;43.214;27.920;2023-01-16T04:20:24;95625.97;;;11.80;100.00
34243;BME280;20504;43.214;27.920;2023-01-16T04:22:50;95625.31;;;11.85;100.00
34243;BME280;20504;43.214;27.920;2023-01-16T04:25:17;95618.31;;;11.90;100.00
34243;BME280;20504;43.214;27.920;2023-01-16T04:27:44;95637.84;;;11.77;100.00
34243;BME280;20504;43.214;27.920;2023-01-16T04:30:10;95676.41;;;11.80;100.00
34243;BME280;20504;43.214;27.920;2023-01-16T04:32:36;95701.50;;;11.77;100.00
34243;BME280;20504;43.214;27.920;2023-01-16T04:35:02;95719.91;;;11.79;100.00
34243;BME280;20504;43.214;27.920;2023-01-16T04:37:27;95761.28;;;11.62;100.00
34243;BME280;20504;43.214;27.920;2023-01-16T04:39:53;95767.31;;;11.69;100.00
34243;BME280;20504;43.214;27.920;2023-01-16T04:42:19;95773.16;;;11.59;100.00
34243;BME280;20504;43.214;27.920;2023-01-16T04:44:44;95811.47;;;11.63;100.00
34243;BME280;20504;43.214;27.920;2023-01-16T04:47:11;95804.41;;;11.75;100.00
34243;BME280;20504;43.214;27.920;2023-01-16T04:49:36;95811.47;;;11.63;100.00
34243;BME280;20504;43.214;27.920;2023-01-16T04:52:02;95813.41;;;11.74;100.00
34243;BME280;20504;43.214;27.920;2023-01-16T04:54:28;95826.22;;;11.77;100.00
34243;BME280;20504;43.214;27.920;2023-01-16T04:56:53;95825.81;;;11.80;100.00
34243;BME280;20504;43.214;27.920;2023-01-16T04:59:19;95863.63;;;11.69;100.00
34243;BME280;20504;43.214;27.920;2023-01-16T05:01:45;95898.34;;;11.68;100.00
34243;BME280;20504;43.214;27.920;2023-01-16T05:04:12;95894.63;;;11.75;100.00
34243;BME280;20504;43.214;27.920;2023-01-16T05:06:38;95895.69;;;11.68;100.00
34243;BME280;20504;43.214;27.920;2023-01-16T05:09:05;95929.34;;;11.74;100.00
34243;BME280;20504;43.214;27.920;2023-01-16T05:11:32;95905.56;;;11.86;100.00
34243;BME280;20504;43.214;27.920;2023-01-16T05:13:58;95887.81;;;11.86;100.00
34243;BME280;20504;43.214;27.920;2023-01-16T05:16:24;95922.41;;;11.98;100.00
34243;BME280;20504;43.214;27.920;2023-01-16T05:18:50;95940.75;;;11.74;100.00
34243;BME280;20504;43.214;27.920;2023-01-16T05:21:15;95964.44;;;11.76;100.00
34243;BME280;20504;43.214;27.920;2023-01-16T05:23:41;95974.91;;;11.64;100.00
34243;BME280;20504;43.214;27.920;2023-01-16T05:26:06;96002.84;;;11.67;100.00
34243;BME280;20504;43.214;27.920;2023-01-16T05:28:33;95997.16;;;11.63;100.00
34243;BME280;20504;43.214;27.920;2023-01-16T05:30:59;96015.16;;;11.61;100.00
34243;BME280;20504;43.214;27.920;2023-01-16T05:33:25;96005.56;;;11.60;100.00
34243;BME280;20504;43.214;27.920;2023-01-16T05:35:51;95986.91;;;11.73;100.00
34243;BME280;20504;43.214;27.920;2023-01-16T05:38:17;95973.38;;;11.81;100.00
34243;BME280;20504;43.214;27.920;2023-01-16T05:40:44;96013.03;;;11.70;100.00
34243;BME280;20504;43.214;27.920;2023-01-16T05:43:10;95989.44;;;11.62;100.00
34243;BME280;20504;43.214;27.920;2023-01-16T05:45:36;95972.50;;;11.88;100.00
34243;BME280;20504;43.214;27.920;2023-01-16T05:48:01;95973.66;;;11.67;100.00
34243;BME280;20504;43.214;27.920;2023-01-16T05:50:27;96026.69;;;11.80;100.00
34243;BME280;20504;43.214;27.920;2023-01-16T05:52:52;96010.97;;;11.78;100.00
34243;BME280;20504;43.214;27.920;2023-01-16T05:55:18;96032.16;;;11.85;100.00
34243;BME280;20504;43.214;27.920;2023-01-16T05:57:43;96034.84;;;11.78;100.00
34243;BME280;20504;43.214;27.920;2023-01-16T06:00:09;96030.34;;;11.79;100.00
34243;BME280;20504;43.214;27.920;2023-01-16T06:02:35;96056.22;;;11.90;100.00
34243;BME280;20504;43.214;27.920;2023-01-16T06:05:01;96069.75;;;11.75;100.00
34243;BME280;20504;43.214;27.920;2023-01-16T06:07:27;96049.66;;;11.93;100.00
34243;BME280;20504;43.214;27.920;2023-01-16T06:09:53;96056.09;;;11.78;100.00
34243;BME280;20504;43.214;27.920;2023-01-16T06:12:19;96046.72;;;12.01;100.00
34243;BME280;20504;43.214;27.920;2023-01-16T06:14:45;96040.06;;;12.17;100.00
34243;BME280;20504;43.214;27.920;2023-01-16T06:17:11;96065.47;;;12.06;100.00
34243;BME280;20504;43.214;27.920;2023-01-16T09:03:33;91883.28;;;12.56;100.00
34243;BME280;20504;43.214;27.920;2023-01-16T09:06:00;91667.97;;;13.11;100.00
34243;BME280;20504;43.214;27.920;2023-01-16T09:08:25;91747.50;;;13.74;100.00
34243;BME280;20504;43.214;27.920;2023-01-16T09:10:51;92079.81;;;14.03;100.00
34243;BME280;20504;43.214;27.920;2023-01-16T09:13:35;92550.97;;;13.93;100.00
34243;BME280;20504;43.214;27.920;2023-01-16T09:16:19;92821.72;;;14.36;100.00
34243;BME280;20504;43.214;27.920;2023-01-16T09:18:45;93162.34;;;14.41;100.00
34243;BME280;20504;43.214;27.920;2023-01-16T09:21:10;93300.00;;;15.04;100.00
34243;BME280;20504;43.214;27.920;2023-01-16T09:23:36;93445.66;;;15.50;100.00
34243;BME280;20504;43.214;27.920;2023-01-16T09:26:01;93591.38;;;15.87;100.00
34243;BME280;20504;43.214;27.920;2023-01-16T09:28:27;93808.72;;;15.67;100.00
34243;BME280;20504;43.214;27.920;2023-01-16T09:30:52;93732.72;;;15.92;100.00
34243;BME280;20504;43.214;27.920;2023-01-16T09:33:18;93352.66;;;16.01;100.00
34243;BME280;20504;43.214;27.920;2023-01-16T09:35:43;93313.16;;;15.81;100.00
34243;BME280;20504;43.214;27.920;2023-01-16T09:38:08;93193.03;;;16.21;100.00
34243;BME280;20504;43.214;27.920;2023-01-16T09:40:34;93104.13;;;16.38;100.00
34243;BME280;20504;43.214;27.920;2023-01-16T09:46:17;93196.44;;;16.13;100.00
34243;BME280;20504;43.214;27.920;2023-01-16T09:51:19;93637.22;;;15.48;100.00
34243;BME280;20504;43.214;27.920;2023-01-16T09:56:52;93872.09;;;15.19;100.00
34243;BME280;20504;43.214;27.920;2023-01-16T10:02:26;94117.81;;;14.78;100.00
34243;BME280;20504;43.214;27.920;2023-01-16T10:04:53;94237.53;;;14.69;100.00
34243;BME280;20504;43.214;27.920;2023-01-16T10:07:44;94242.47;;;15.20;100.00
34243;BME280;20504;43.214;27.920;2023-01-16T10:10:44;94379.09;;;15.02;100.00
34243;BME280;20504;43.214;27.920;2023-01-16T10:26:16;94838.72;;;14.18;100.00
34243;BME280;20504;43.214;27.920;2023-01-16T10:28:54;94792.47;;;14.39;100.00
34243;BME280;20504;43.214;27.920;2023-01-16T10:34:32;94860.03;;;14.23;100.00
34243;BME280;20504;43.214;27.920;2023-01-16T10:36:59;94917.69;;;14.02;100.00
34243;BME280;20504;43.214;27.920;2023-01-16T10:39:31;94952.31;;;14.02;100.00
34243;BME280;20504;43.214;27.920;2023-01-16T10:42:10;94900.22;;;14.16;100.00
34243;BME280;20504;43.214;27.920;2023-01-16T10:47:51;94932.13;;;14.11;100.00
34243;BME280;20504;43.214;27.920;2023-01-16T10:50:36;94977.22;;;13.91;100.00
34243;BME280;20504;43.214;27.920;2023-01-16T10:53:03;94914.91;;;14.24;100.00
34243;BME280;20504;43.214;27.920;2023-01-16T10:55:30;94948.16;;;14.16;100.00
34243;BME280;20504;43.214;27.920;2023-01-16T10:58:00;94999.19;;;14.03;100.00
34243;BME280;20504;43.214;27.920;2023-01-16T11:00:39;94947.34;;;14.16;100.00
34243;BME280;20504;43.214;27.920;2023-01-16T11:06:08;94972.44;;;14.25;100.00
34243;BME280;20504;43.214;27.920;2023-01-16T11:08:34;94948.81;;;14.34;100.00
34243;BME280;20504;43.214;27.920;2023-01-16T11:11:00;94899.69;;;14.62;100.00
34243;BME280;20504;43.214;27.920;2023-01-16T11:13:27;94897.56;;;14.64;100.00
34243;BME280;20504;43.214;27.920;2023-01-16T11:21:42;94874.16;;;14.71;100.00
34243;BME280;20504;43.214;27.920;2023-01-16T11:24:20;95017.91;;;14.13;100.00
34243;BME280;20504;43.214;27.920;2023-01-16T11:26:49;94890.06;;;14.50;100.00
34243;BME280;20504;43.214;27.920;2023-01-16T11:29:17;95032.72;;;14.04;100.00
34243;BME280;20504;43.214;27.920;2023-01-16T11:32:06;94938.56;;;14.58;100.00
34243;BME280;20504;43.214;27.920;2023-01-16T11:34:36;94887.69;;;14.59;100.00
34243;BME280;20504;43.214;27.920;2023-01-16T11:37:05;94944.69;;;14.53;100.00
34243;BME280;20504;43.214;27.920;2023-01-16T11:39:34;94994.09;;;14.34;100.00
34243;BME280;20504;43.214;27.920;2023-01-16T11:42:09;95023.81;;;14.20;100.00
34243;BME280;20504;43.214;27.920;2023-01-16T11:44:56;95041.56;;;14.10;100.00
34243;BME280;20504;43.214;27.920;2023-01-16T11:47:42;95048.97;;;14.03;100.00
34243;BME280;20504;43.214;27.920;2023-01-16T11:50:21;95061.44;;;13.97;100.00
34243;BME280;20504;43.214;27.920;2023-01-16T11:52:50;94973.44;;;14.14;100.00
34243;BME280;20504;43.214;27.920;2023-01-16T11:55:16;94928.50;;;14.28;100.00
34243;BME280;20504;43.214;27.920;2023-01-16T11:58:08;94852.25;;;14.64;100.00
34243;BME280;20504;43.214;27.920;2023-01-16T12:00:53;94851.94;;;14.50;100.00
34243;BME280;20504;43.214;27.920;2023-01-16T12:15:24;94876.94;;;13.97;100.00
34243;BME280;20504;43.214;27.920;2023-01-16T12:18:23;94910.22;;;13.99;100.00
34243;BME280;20504;43.214;27.920;2023-01-16T12:21:01;94869.81;;;14.12;100.00
34243;BME280;20504;43.214;27.920;2023-01-16T12:24:28;94760.31;;;14.56;100.00
34243;BME280;20504;43.214;27.920;2023-01-16T12:29:57;94763.22;;;14.49;100.00
34243;BME280;20504;43.214;27.920;2023-01-16T12:35:46;94905.91;;;13.93;100.00
34243;BME280;20504;43.214;27.920;2023-01-16T12:38:12;94981.06;;;13.73;100.00
34243;BME280;20504;43.214;27.920;2023-01-16T12:41:04;95030.50;;;13.64;100.00
34243;BME280;20504;43.214;27.920;2023-01-16T12:47:22;94884.16;;;14.01;100.00
34243;BME280;20504;43.214;27.920;2023-01-16T12:50:18;94979.19;;;13.42;100.00
34243;BME280;20504;43.214;27.920;2023-01-16T12:56:02;94910.34;;;13.18;100.00
34243;BME280;20504;43.214;27.920;2023-01-16T12:58:35;94839.69;;;13.27;100.00
34243;BME280;20504;43.214;27.920;2023-01-16T13:01:12;94799.84;;;13.32;100.00
34243;BME280;20504;43.214;27.920;2023-01-16T13:04:24;94678.34;;;13.38;100.00
34243;BME280;20504;43.214;27.920;2023-01-16T13:06:56;94659.72;;;13.33;100.00
34243;BME280;20504;43.214;27.920;2023-01-16T13:12:23;94562.72;;;13.46;100.00
34243;BME280;20504;43.214;27.920;2023-01-16T13:15:22;94548.28;;;13.26;100.00
34243;BME280;20504;43.214;27.920;2023-01-16T13:17:55;94543.50;;;13.28;100.00
34243;BME280;20504;43.214;27.920;2023-01-16T13:20:23;94516.28;;;13.16;100.00
34243;BME280;20504;43.214;27.920;2023-01-16T13:22:55;94485.53;;;13.25;100.00
34243;BME280;20504;43.214;27.920;2023-01-16T13:25:39;94505.91;;;13.04;100.00
34243;BME280;20504;43.214;27.920;2023-01-16T13:31:01;94302.34;;;13.44;100.00
34243;BME280;20504;43.214;27.920;2023-01-16T13:33:30;94332.94;;;13.47;100.00
34243;BME280;20504;43.214;27.920;2023-01-16T13:36:15;94356.06;;;13.36;100.00
34243;BME280;20504;43.214;27.920;2023-01-16T13:41:51;94298.91;;;13.28;100.00
34243;BME280;20504;43.214;27.920;2023-01-16T13:44:22;94384.78;;;13.34;100.00
34243;BME280;20504;43.214;27.920;2023-01-16T13:47:14;94388.97;;;13.15;100.00
34243;BME280;20504;43.214;27.920;2023-01-16T13:49:41;94505.56;;;12.91;100.00
34243;BME280;20504;43.214;27.920;2023-01-16T13:52:19;94375.47;;;13.37;100.00
34243;BME280;20504;43.214;27.920;2023-01-16T13:54:47;94491.50;;;12.90;100.00
34243;BME280;20504;43.214;27.920;2023-01-16T13:57:20;94502.56;;;12.77;100.00
34243;BME280;20504;43.214;27.920;2023-01-16T13:59:57;94470.75;;;12.87;100.00
34243;BME280;20504;43.214;27.920;2023-01-16T14:08:16;94398.22;;;12.87;100.00
34243;BME280;20504;43.214;27.920;2023-01-16T14:13:41;94354.91;;;12.96;100.00
34243;BME280;20504;43.214;27.920;2023-01-16T14:16:43;94306.84;;;13.03;100.00
34243;BME280;20504;43.214;27.920;2023-01-16T14:21:41;94398.22;;;12.87;100.00
34243;BME280;20504;43.214;27.920;2023-01-16T14:24:19;94402.72;;;12.86;100.00
34243;BME280;20504;43.214;27.920;2023-01-16T14:27:00;94324.13;;;13.11;100.00
34243;BME280;20504;43.214;27.920;2023-01-16T14:29:49;94366.34;;;12.87;100.00
34243;BME280;20504;43.214;27.920;2023-01-16T14:32:19;94370.06;;;12.86;100.00
34243;BME280;20504;43.214;27.920;2023-01-16T14:37:15;94440.41;;;12.78;100.00
34243;BME280;20504;43.214;27.920;2023-01-16T14:39:48;94442.28;;;12.78;100.00
34243;BME280;20504;43.214;27.920;2023-01-16T14:42:19;94406.72;;;12.84;100.00
34243;BME280;20504;43.214;27.920;2023-01-16T14:51:16;94308.66;;;12.77;100.00
34243;BME280;20504;43.214;27.920;2023-01-16T14:54:02;94275.97;;;12.66;100.00
34243;BME280;20504;43.214;27.920;2023-01-16T14:56:50;94253.41;;;12.69;100.00
34243;BME280;20504;43.214;27.920;2023-01-16T14:59:22;94261.63;;;12.72;100.00
34243;BME280;20504;43.214;27.920;2023-01-16T15:02:05;94216.72;;;12.81;100.00
34243;BME280;20504;43.214;27.920;2023-01-16T15:05:06;94145.03;;;12.71;100.00
34243;BME280;20504;43.214;27.920;2023-01-16T15:12:41;94052.03;;;12.86;100.00
34243;BME280;20504;43.214;27.920;2023-01-16T15:15:27;94001.56;;;12.86;100.00
34243;BME280;20504;43.214;27.920;2023-01-16T15:17:58;94002.63;;;12.85;100.00
34243;BME280;20504;43.214;27.920;2023-01-16T15:20:46;93824.91;;;13.28;100.00
34243;BME280;20504;43.214;27.920;2023-01-16T15:23:35;93879.56;;;12.95;100.00
34243;BME280;20504;43.214;27.920;2023-01-16T15:29:04;93756.72;;;13.42;100.00
34243;BME280;20504;43.214;27.920;2023-01-16T15:31:39;93795.78;;;13.08;100.00
34243;BME280;20504;43.214;27.920;2023-01-16T15:39:11;93779.66;;;13.33;100.00
34243;BME280;20504;43.214;27.920;2023-01-16T15:41:44;93784.03;;;13.14;100.00
34243;BME280;20504;43.214;27.920;2023-01-16T15:44:31;93744.13;;;13.24;100.00
34243;BME280;20504;43.214;27.920;2023-01-16T15:52:43;93774.56;;;13.02;100.00
34243;BME280;20504;43.214;27.920;2023-01-16T15:57:46;93843.53;;;12.73;100.00
34243;BME280;20504;43.214;27.920;2023-01-16T16:00:33;93772.03;;;12.87;100.00
34243;BME280;20504;43.214;27.920;2023-01-16T16:03:11;93726.34;;;12.85;100.00
34243;BME280;20504;43.214;27.920;2023-01-16T16:05:39;93722.28;;;12.93;100.00
34243;BME280;20504;43.214;27.920;2023-01-16T16:08:06;93676.78;;;12.99;100.00
34243;BME280;20504;43.214;27.920;2023-01-16T16:10:38;93700.59;;;12.81;100.00
34243;BME280;20504;43.214;27.920;2023-01-16T16:13:22;93654.66;;;12.80;100.00
34243;BME280;20504;43.214;27.920;2023-01-16T16:15:59;93648.25;;;12.86;100.00
34243;BME280;20504;43.214;27.920;2023-01-16T16:18:58;93543.44;;;12.97;100.00
34243;BME280;20504;43.214;27.920;2023-01-16T16:21:27;93597.75;;;12.86;100.00
34243;BME280;20504;43.214;27.920;2023-01-16T16:24:09;93646.94;;;12.84;100.00
34243;BME280;20504;43.214;27.920;2023-01-16T16:26:39;93631.72;;;12.89;100.00
34243;BME280;20504;43.214;27.920;2023-01-16T16:29:05;93690.28;;;12.74;100.00
34243;BME280;20504;43.214;27.920;2023-01-16T16:31:33;93733.09;;;12.67;100.00
34243;BME280;20504;43.214;27.920;2023-01-16T16:34:19;93726.88;;;12.82;100.00
34243;BME280;20504;43.214;27.920;2023-01-16T16:36:50;93581.19;;;12.94;100.00
34243;BME280;20504;43.214;27.920;2023-01-16T16:41:54;93469.72;;;13.08;100.00
34243;BME280;20504;43.214;27.920;2023-01-16T16:47:27;93304.53;;;13.01;100.00
34243;BME280;20504;43.214;27.920;2023-01-16T16:49:53;93323.50;;;12.94;100.00
34243;BME280;20504;43.214;27.920;2023-01-16T16:52:38;93266.84;;;13.18;100.00
34243;BME280;20504;43.214;27.920;2023-01-16T16:55:34;93226.47;;;13.16;100.00
34243;BME280;20504;43.214;27.920;2023-01-16T16:58:03;93274.38;;;13.11;100.00
34243;BME280;20504;43.214;27.920;2023-01-16T17:00:31;93343.41;;;12.97;100.00
34243;BME280;20504;43.214;27.920;2023-01-16T17:03:19;93151.50;;;13.19;100.00
34243;BME280;20504;43.214;27.920;2023-01-16T17:05:47;93200.03;;;12.92;100.00
34243;BME280;20504;43.214;27.920;2023-01-16T17:08:25;93107.78;;;13.11;100.00
34243;BME280;20504;43.214;27.920;2023-01-16T17:10:53;93129.97;;;12.88;100.00
34243;BME280;20504;43.214;27.920;2023-01-16T17:13:20;93199.03;;;12.88;100.00
34243;BME280;20504;43.214;27.920;2023-01-16T17:15:46;93118.53;;;13.20;100.00
34243;BME280;20504;43.214;27.920;2023-01-16T17:18:12;93202.56;;;12.83;100.00
34243;BME280;20504;43.214;27.920;2023-01-16T17:20:39;93245.13;;;12.78;100.00
34243;BME280;20504;43.214;27.920;2023-01-16T17:23:11;93206.81;;;12.84;100.00
34243;BME280;20504;43.214;27.920;2023-01-16T17:25:38;93182.13;;;12.97;100.00
34243;BME280;20504;43.214;27.920;2023-01-16T17:28:04;93238.72;;;12.79;100.00
34243;BME280;20504;43.214;27.920;2023-01-16T17:30:30;93214.63;;;12.76;100.00
34243;BME280;20504;43.214;27.920;2023-01-16T17:33:19;93121.34;;;12.63;100.00
34243;BME280;20504;43.214;27.920;2023-01-16T17:35:48;93090.59;;;12.76;100.00
34243;BME280;20504;43.214;27.920;2023-01-16T17:38:24;92985.59;;;12.84;100.00
34243;BME280;20504;43.214;27.920;2023-01-16T17:40:50;92969.44;;;12.80;100.00
34243;BME280;20504;43.214;27.920;2023-01-16T17:43:18;92946.72;;;12.74;100.00
34243;BME280;20504;43.214;27.920;2023-01-16T17:46:08;92810.34;;;12.70;100.00
34243;BME280;20504;43.214;27.920;2023-01-16T17:48:33;92744.75;;;12.70;100.00
34243;BME280;20504;43.214;27.920;2023-01-16T17:50:59;92608.81;;;12.91;100.00
34243;BME280;20504;43.214;27.920;2023-01-16T17:53:27;92518.25;;;13.01;100.00
34243;BME280;20504;43.214;27.920;2023-01-16T17:55:55;92514.00;;;12.91;100.00
34243;BME280;20504;43.214;27.920;2023-01-16T17:58:29;92422.03;;;13.04;100.00
34243;BME280;20504;43.214;27.920;2023-01-16T18:01:13;92384.97;;;12.99;100.00
34243;BME280;20504;43.214;27.920;2023-01-16T19:45:19;92771.34;;;12.79;100.00
34243;BME280;20504;43.214;27.920;2023-01-16T19:48:10;92895.06;;;12.80;100.00
34243;BME280;20504;43.214;27.920;2023-01-16T19:50:36;92994.13;;;13.08;100.00
34243;BME280;20504;43.214;27.920;2023-01-16T19:53:02;93100.22;;;13.04;100.00
34243;BME280;20504;43.214;27.920;2023-01-16T19:55:31;93248.06;;;12.95;100.00
34243;BME280;20504;43.214;27.920;2023-01-16T19:57:57;93298.59;;;13.09;100.00
34243;BME280;20504;43.214;27.920;2023-01-16T20:00:23;93409.03;;;12.96;100.00
34243;BME280;20504;43.214;27.920;2023-01-16T20:02:48;93505.75;;;12.95;100.00
34243;BME280;20504;43.214;27.920;2023-01-16T20:05:14;93593.56;;;12.80;100.00
34243;BME280;20504;43.214;27.920;2023-01-16T20:07:39;93634.06;;;12.96;100.00
34243;BME280;20504;43.214;27.920;2023-01-16T20:10:05;93686.44;;;12.90;100.00
34243;BME280;20504;43.214;27.920;2023-01-16T20:12:30;93711.19;;;12.86;100.00
34243;BME280;20504;43.214;27.920;2023-01-16T20:14:59;93653.25;;;13.17;100.00
34243;BME280;20504;43.214;27.920;2023-01-16T20:17:28;93649.06;;;13.11;100.00
34243;BME280;20504;43.214;27.920;2023-01-16T20:19:54;93708.72;;;12.94;100.00
34243;BME280;20504;43.214;27.920;2023-01-16T20:22:20;93714.94;;;12.85;100.00